West Essex Park Conservancy

Temperature/Humidity/Waterlevel monitor

08-14 01:45     F   %    Z  mov    seq 
08-14 01:42,   62, 91,  0.0 224  62984
08-14 01:22,   63, 91,  0.0 224  62028
08-14 01:02,   63, 91,  0.0 224  61092
08-14 00:41,   63, 91,  0.0 224  60090
08-14 00:20,   63, 91,  0.0 224  59134
08-14 00:00,   63, 90,  0.0 224  58178
08-13 23:39,   64, 90,  0.0 224  57223
08-13 23:19,   65, 90,  0.0 224  56267
08-13 22:58,   65, 89,  0.0 224  55311
08-13 22:38,   65, 89,  0.0 224  54353
08-13 22:17,   66, 89,  0.0 224  53396
08-13 21:57,   66, 88,  0.0 224  52440
08-13 21:36,   65, 88,  0.0 224  51483
08-13 21:16,   66, 87,  0.0 224  50527
08-13 20:55,   67, 86,  0.0 224  49572
08-13 20:35,   68, 85,  0.0 224  48617
08-13 20:14,   69, 83,  0.0 224  47663
08-13 19:54,   71, 81,  0.0 224  46708
08-13 19:34,   74, 78,  0.0 224  45753
08-13 19:13,   78, 73,  0.0 224  44798
08-13 18:53,   81, 73,  0.0 224  43840
08-13 18:32,   79, 77,  0.0 224  42881
08-13 18:12,   78, 77,  0.0 224  41922
08-13 17:51,   78, 76,  0.0 224  40965
08-13 17:31,   79, 74,  0.0 224  40008
08-13 17:10,   80, 72,  0.0 224  39071
08-13 16:49,   80, 70,  0.0 224  38087
08-13 16:07,   82, 65,  0.0 224  36128
08-13 15:47,   85, 63,  0.0 224  35172
08-13 15:27,   85, 65,  0.0 224  34234
08-13 15:06,   83, 67,  0.0 224  33247
08-13 14:44,   82, 68,  0.0 224  32263
08-13 14:23,   81, 67,  0.0 224  31276
08-13 14:02,   82, 66,  0.0 224  30274
08-13 13:42,   83, 63,  0.0 224  29337
08-13 13:21,   87, 61,  0.0 224  28352
08-13 13:00,   87, 66,  0.0 224  27366
08-13 12:39,   83, 72,  0.0 224  26380
08-13 12:17,   80, 75,  0.0 224  25396
08-13 11:56,   80, 78,  0.0 224  24388

Go to the West Essex Park Conservancy birding log .